createdAt,value
2023-04-25T00:02:16.242Z,48.58
2023-04-25T00:04:43.628Z,48.52
2023-04-25T00:07:11.604Z,48.53
2023-04-25T00:09:38.416Z,48.50
2023-04-25T00:12:05.614Z,48.53
2023-04-25T00:14:35.201Z,48.53
2023-04-25T00:17:02.413Z,48.34
2023-04-25T00:19:29.455Z,48.10
2023-04-25T00:21:56.570Z,48.04
2023-04-25T00:24:23.287Z,47.79
2023-04-25T00:26:50.029Z,47.80
2023-04-25T00:29:17.278Z,47.76
2023-04-25T00:31:44.046Z,47.75
2023-04-25T00:34:10.787Z,47.82
2023-04-25T00:36:37.487Z,47.87
2023-04-25T00:39:05.653Z,47.77
2023-04-25T00:41:33.000Z,47.94
2023-04-25T00:44:00.487Z,48.05
2023-04-25T00:46:27.336Z,48.02
2023-04-25T00:48:54.124Z,48.01
2023-04-25T00:51:21.562Z,48.13
2023-04-25T00:53:50.489Z,48.11
2023-04-25T00:56:17.529Z,48.10
2023-04-25T00:58:44.345Z,48.05
2023-04-25T01:01:11.561Z,48.05
2023-04-25T01:03:42.245Z,47.98
2023-04-25T01:06:10.281Z,48.08
2023-04-25T01:08:40.959Z,48.20
2023-04-25T01:11:07.848Z,48.24
2023-04-25T01:13:35.082Z,48.32
2023-04-25T01:16:02.196Z,48.32
2023-04-25T01:18:29.068Z,48.61
2023-04-25T01:20:56.714Z,48.60
2023-04-25T01:23:23.793Z,48.61
2023-04-25T01:25:50.932Z,48.77
2023-04-25T01:28:17.718Z,48.82
2023-04-25T01:30:44.456Z,49.08
2023-04-25T01:33:11.264Z,49.17
2023-04-25T01:35:38.042Z,49.31
2023-04-25T01:38:04.801Z,49.28
2023-04-25T01:40:34.579Z,49.48
2023-04-25T01:43:01.364Z,49.53
2023-04-25T01:45:28.328Z,49.56
2023-04-25T01:47:55.101Z,49.52
2023-04-25T01:50:21.971Z,49.54
2023-04-25T01:52:49.192Z,49.64
2023-04-25T01:55:16.705Z,49.67
2023-04-25T01:57:52.897Z,50.01
2023-04-25T02:00:24.388Z,50.12
2023-04-25T02:02:52.006Z,50.20
2023-04-25T02:05:28.743Z,50.41
2023-04-25T02:07:56.142Z,50.45
2023-04-25T02:10:25.622Z,50.60
2023-04-25T02:13:07.221Z,50.89
2023-04-25T02:16:06.468Z,50.97
2023-04-25T02:18:34.287Z,51.20
2023-04-25T02:21:02.169Z,51.31
2023-04-25T02:23:29.378Z,51.24
2023-04-25T02:25:56.471Z,51.30
2023-04-25T02:28:24.816Z,51.74
2023-04-25T02:30:53.378Z,51.80
2023-04-25T02:33:22.021Z,51.97
2023-04-25T02:35:48.978Z,52.15
2023-04-25T02:38:15.849Z,52.16
2023-04-25T02:40:42.610Z,52.51
2023-04-25T02:43:09.410Z,52.74
2023-04-25T02:45:36.442Z,52.89
2023-04-25T02:48:04.345Z,52.85
2023-04-25T02:50:32.505Z,52.93
2023-04-25T02:52:59.621Z,53.24
2023-04-25T02:55:30.868Z,53.27
2023-04-25T02:57:57.903Z,53.58
2023-04-25T03:00:36.579Z,53.60
2023-04-25T03:03:03.686Z,53.77
2023-04-25T03:05:30.698Z,54.02
2023-04-25T03:07:58.470Z,53.96
2023-04-25T03:10:25.334Z,54.01
2023-04-25T03:12:52.102Z,54.14
2023-04-25T03:15:19.735Z,54.17
2023-04-25T03:17:46.520Z,54.28
2023-04-25T03:20:13.479Z,54.36
2023-04-25T03:22:40.568Z,54.53
2023-04-25T03:25:08.293Z,54.61
2023-04-25T03:27:35.369Z,54.48
2023-04-25T03:30:02.818Z,54.43
2023-04-25T03:32:29.953Z,54.36
2023-04-25T03:34:56.906Z,54.36
2023-04-25T03:37:43.081Z,54.46
2023-04-25T03:40:10.129Z,54.24
2023-04-25T03:43:02.763Z,53.82
2023-04-25T03:45:29.580Z,53.43
2023-04-25T03:47:56.838Z,53.05
2023-04-25T03:50:23.661Z,52.58
2023-04-25T03:52:50.900Z,52.17
2023-04-25T03:55:17.754Z,51.57
2023-04-25T03:57:44.822Z,51.07
2023-04-25T04:00:12.331Z,50.77
2023-04-25T04:02:43.943Z,50.70
2023-04-25T04:05:12.291Z,50.65
2023-04-25T04:07:44.884Z,50.29
2023-04-25T04:10:13.031Z,49.71
2023-04-25T04:12:40.690Z,48.97
2023-04-25T04:15:08.118Z,48.54
2023-04-25T04:17:35.806Z,47.86
2023-04-25T04:20:04.706Z,47.24
2023-04-25T04:22:32.425Z,46.73
2023-04-25T04:25:05.766Z,46.23
2023-04-25T04:27:55.665Z,45.63
2023-04-25T04:30:32.136Z,45.05
2023-04-25T04:33:02.828Z,44.40
2023-04-25T04:35:29.935Z,43.80
2023-04-25T04:37:57.291Z,43.01
2023-04-25T04:40:26.650Z,42.32
2023-04-25T04:43:06.932Z,42.61
2023-04-25T04:45:52.104Z,43.01
2023-04-25T04:48:35.429Z,43.40
2023-04-25T04:51:21.936Z,43.53
2023-04-25T04:54:03.539Z,42.58
2023-04-25T04:56:43.186Z,41.70
2023-04-25T04:59:33.838Z,41.15
2023-04-25T05:02:30.064Z,40.22
2023-04-25T05:05:23.181Z,40.03
2023-04-25T05:07:59.476Z,40.22
2023-04-25T05:10:41.235Z,40.89
2023-04-25T05:13:31.509Z,41.51
2023-04-25T05:16:05.155Z,41.76
2023-04-25T05:18:52.059Z,41.98
2023-04-25T05:21:33.789Z,41.83
2023-04-25T05:24:17.664Z,41.50
2023-04-25T05:27:19.859Z,41.48
2023-04-25T05:30:06.847Z,41.44
2023-04-25T05:32:43.876Z,40.88
2023-04-25T05:35:10.788Z,40.18
2023-04-25T05:37:43.848Z,39.61
2023-04-25T05:40:12.641Z,39.18
2023-04-25T05:42:45.537Z,38.60
2023-04-25T05:45:42.532Z,38.34
2023-04-25T05:48:28.384Z,38.24
2023-04-25T05:51:21.263Z,37.52
2023-04-25T05:54:08.232Z,36.88
2023-04-25T05:56:35.777Z,35.93
2023-04-25T05:59:02.524Z,36.00
2023-04-25T06:01:29.263Z,35.58
2023-04-25T06:03:56.469Z,35.23
2023-04-25T06:06:24.092Z,34.79
2023-04-25T06:08:51.439Z,34.12
2023-04-25T06:11:18.226Z,33.47
2023-04-25T06:13:44.939Z,33.03
2023-04-25T06:16:12.543Z,32.56
2023-04-25T06:18:39.635Z,32.36
2023-04-25T06:21:06.351Z,32.32
2023-04-25T06:23:33.423Z,32.13
2023-04-25T06:26:04.419Z,31.67
2023-04-25T06:28:31.609Z,31.39
2023-04-25T06:30:58.323Z,30.73
2023-04-25T06:33:25.467Z,30.59
2023-04-25T06:35:52.284Z,30.59
2023-04-25T06:38:22.816Z,30.60
2023-04-25T06:40:51.403Z,30.47
2023-04-25T06:43:18.487Z,30.56
2023-04-25T06:45:57.221Z,30.71
2023-04-25T06:48:25.448Z,30.69
2023-04-25T06:50:52.292Z,30.62
2023-04-25T06:53:19.869Z,30.35
2023-04-25T06:55:48.869Z,30.23
2023-04-25T06:58:21.084Z,30.03
2023-04-25T07:01:07.594Z,30.08
2023-04-25T07:03:34.921Z,30.19
2023-04-25T07:06:06.241Z,30.23
2023-04-25T07:08:33.136Z,30.37
2023-04-25T07:11:00.039Z,30.23
2023-04-25T07:15:48.596Z,31.15
2023-04-25T07:18:17.096Z,30.13
2023-04-25T07:20:44.425Z,29.77
2023-04-25T07:23:12.069Z,29.59
2023-04-25T07:25:39.426Z,29.36
2023-04-25T07:28:06.445Z,29.29
2023-04-25T07:30:33.235Z,29.15
2023-04-25T07:33:04.011Z,29.03
2023-04-25T07:35:30.828Z,29.09
2023-04-25T07:37:57.602Z,28.99
2023-04-25T07:40:24.924Z,28.91
2023-04-25T07:42:55.779Z,28.94
2023-04-25T07:45:44.918Z,29.14
2023-04-25T07:48:12.234Z,29.05
2023-04-25T07:50:39.132Z,29.05
2023-04-25T07:53:06.403Z,29.21
2023-04-25T07:55:37.617Z,29.06
2023-04-25T07:58:10.803Z,29.00
2023-04-25T08:00:39.090Z,28.77
2023-04-25T08:03:35.298Z,28.91
2023-04-25T08:06:07.719Z,28.70
2023-04-25T08:08:39.540Z,28.44
2023-04-25T08:11:07.009Z,28.16
2023-04-25T08:13:33.746Z,28.29
2023-04-25T08:16:00.881Z,28.39
2023-04-25T08:18:27.998Z,28.25
2023-04-25T08:20:54.949Z,28.01
2023-04-25T08:23:21.680Z,27.77
2023-04-25T08:25:53.607Z,27.80
2023-04-25T08:28:22.902Z,27.77
2023-04-25T08:30:49.656Z,27.92
2023-04-25T08:33:16.719Z,27.68
2023-04-25T08:35:58.557Z,27.82
2023-04-25T08:38:25.557Z,27.45
2023-04-25T08:40:53.538Z,26.79
2023-04-25T08:43:21.536Z,26.61
2023-04-25T08:45:48.546Z,26.64
2023-04-25T08:48:23.648Z,26.19
2023-04-25T08:50:54.307Z,26.40
2023-04-25T08:53:28.913Z,25.87
2023-04-25T08:55:58.827Z,26.21
2023-04-25T08:58:25.646Z,26.32
2023-04-25T09:00:52.558Z,26.72
2023-04-25T09:03:20.728Z,27.02
2023-04-25T09:05:48.194Z,27.37
2023-04-25T09:08:15.968Z,27.46
2023-04-25T09:10:42.954Z,27.46
2023-04-25T09:13:13.935Z,27.20
2023-04-25T09:16:00.080Z,27.15
2023-04-25T09:18:39.722Z,27.24
2023-04-25T09:21:14.321Z,27.13
2023-04-25T09:23:50.887Z,26.92
2023-04-25T09:26:21.868Z,26.67
2023-04-25T09:28:49.345Z,26.82
2023-04-25T09:31:27.131Z,26.89
2023-04-25T09:34:02.250Z,26.98
2023-04-25T09:36:31.410Z,27.14
2023-04-25T09:39:30.896Z,26.84
2023-04-25T09:42:08.580Z,27.01
2023-04-25T09:44:36.970Z,26.56
2023-04-25T09:47:04.018Z,26.34
2023-04-25T09:49:31.296Z,26.28
2023-04-25T09:52:02.793Z,26.17
2023-04-25T09:54:56.111Z,25.48
2023-04-25T09:57:28.904Z,25.51
2023-04-25T09:59:56.948Z,25.31
2023-04-25T10:02:26.776Z,25.60
2023-04-25T10:04:56.973Z,25.53
2023-04-25T10:07:36.401Z,25.84
2023-04-25T10:10:04.848Z,25.75
2023-04-25T10:12:32.442Z,25.66
2023-04-25T10:14:59.433Z,25.15
2023-04-25T10:17:28.905Z,24.94
2023-04-25T10:19:55.766Z,24.84
2023-04-25T10:22:39.918Z,24.94
2023-04-25T10:25:07.151Z,24.89
2023-04-25T10:27:34.281Z,24.87
2023-04-25T10:30:05.616Z,24.76
2023-04-25T10:32:34.088Z,24.49
2023-04-25T10:35:17.784Z,24.42
2023-04-25T10:38:01.586Z,24.67
2023-04-25T10:40:28.440Z,24.66
2023-04-25T10:42:57.144Z,24.35
2023-04-25T10:45:23.917Z,24.20
2023-04-25T10:47:50.752Z,24.25
2023-04-25T10:50:18.177Z,24.20
2023-04-25T10:52:47.974Z,24.25
2023-04-25T10:55:14.759Z,24.76
2023-04-25T10:57:47.339Z,24.64
2023-04-25T11:00:16.499Z,24.74
2023-04-25T11:02:46.891Z,24.63
2023-04-25T11:05:51.077Z,24.15
2023-04-25T11:08:49.101Z,23.77
2023-04-25T11:11:18.410Z,23.73
2023-04-25T11:13:46.053Z,23.88
2023-04-25T11:16:23.611Z,23.99
2023-04-25T11:18:54.285Z,24.13
2023-04-25T11:21:21.103Z,23.80
2023-04-25T11:23:47.921Z,23.71
2023-04-25T11:26:16.189Z,23.52
2023-04-25T11:28:46.351Z,23.16
2023-04-25T11:31:13.325Z,22.75
2023-04-25T11:33:41.883Z,22.49
2023-04-25T11:36:08.935Z,22.46
2023-04-25T11:38:35.796Z,22.78
2023-04-25T11:41:02.768Z,23.27
2023-04-25T11:43:29.652Z,23.70
2023-04-25T11:45:56.810Z,24.09
2023-04-25T11:48:25.975Z,24.14
2023-04-25T11:50:55.211Z,23.93
2023-04-25T11:53:22.138Z,23.87
2023-04-25T11:55:48.886Z,23.74
2023-04-25T11:58:15.664Z,23.80
2023-04-25T12:00:50.097Z,23.91
2023-04-25T12:03:18.865Z,24.19
2023-04-25T12:05:46.378Z,24.10
2023-04-25T12:08:17.048Z,24.14
2023-04-25T12:10:46.430Z,23.97
2023-04-25T12:13:27.001Z,23.49
2023-04-25T12:15:55.621Z,22.96
2023-04-25T12:18:24.497Z,22.30
2023-04-25T12:20:51.409Z,21.87
2023-04-25T12:23:18.314Z,21.80
2023-04-25T12:25:46.141Z,22.03
2023-04-25T12:28:28.947Z,22.19
2023-04-25T12:31:00.141Z,22.07
2023-04-25T12:33:28.553Z,21.89
2023-04-25T12:35:55.743Z,21.92
2023-04-25T12:38:31.171Z,22.07
2023-04-25T12:41:01.004Z,22.33
2023-04-25T12:43:27.801Z,22.31
2023-04-25T12:45:56.401Z,22.40
2023-04-25T12:48:23.347Z,22.20
2023-04-25T12:50:50.826Z,21.84
2023-04-25T12:53:18.654Z,21.76
2023-04-25T12:55:47.829Z,22.04
2023-04-25T12:58:19.127Z,22.28
2023-04-25T13:00:46.302Z,22.17
2023-04-25T13:03:13.813Z,21.98
2023-04-25T13:08:28.286Z,21.16
2023-04-25T13:10:55.050Z,21.36
2023-04-25T13:13:21.933Z,21.41
2023-04-25T13:15:48.792Z,21.57
2023-04-25T13:18:16.235Z,21.64
2023-04-25T13:20:42.961Z,21.88
2023-04-25T13:23:09.650Z,22.10
2023-04-25T13:25:36.355Z,21.95
2023-04-25T13:28:03.250Z,21.96
2023-04-25T13:30:29.994Z,22.09
2023-04-25T13:32:58.376Z,22.13
2023-04-25T13:35:26.893Z,22.08
2023-04-25T13:37:53.728Z,22.31
2023-04-25T13:40:20.637Z,22.47
2023-04-25T13:42:47.736Z,22.63
2023-04-25T13:45:14.551Z,22.56
2023-04-25T13:47:41.426Z,22.72
2023-04-25T13:50:09.027Z,22.78
2023-04-25T13:52:35.782Z,22.59
2023-04-25T13:55:04.530Z,22.25
2023-04-25T13:57:32.725Z,22.43
2023-04-25T13:59:59.500Z,22.48
2023-04-25T14:02:27.086Z,22.90
2023-04-25T14:04:53.931Z,22.90
2023-04-25T14:07:22.024Z,23.07
2023-04-25T14:09:48.754Z,23.28
2023-04-25T14:12:16.830Z,23.65
2023-04-25T14:14:43.520Z,23.75
2023-04-25T14:17:10.362Z,23.80
2023-04-25T14:19:38.681Z,23.50
2023-04-25T14:22:05.975Z,23.00
2023-04-25T14:24:32.679Z,22.41
2023-04-25T14:26:59.519Z,21.75
2023-04-25T14:29:26.213Z,21.14
2023-04-25T14:31:52.976Z,20.93
2023-04-25T14:34:20.061Z,20.70
2023-04-25T14:36:46.786Z,20.45
2023-04-25T14:39:15.083Z,20.39
2023-04-25T14:41:41.804Z,20.59
2023-04-25T14:44:09.394Z,20.65
2023-04-25T14:46:36.347Z,20.57
2023-04-25T14:49:04.105Z,20.30
2023-04-25T14:51:32.075Z,20.63
2023-04-25T14:53:59.132Z,21.18
2023-04-25T14:56:25.952Z,21.73
2023-04-25T14:58:52.780Z,22.46
2023-04-25T15:01:21.778Z,22.87
2023-04-25T15:03:49.559Z,22.98
2023-04-25T15:06:16.509Z,22.52
2023-04-25T15:08:43.205Z,22.12
2023-04-25T15:11:12.148Z,21.43
2023-04-25T15:13:38.849Z,21.27
2023-04-25T15:16:06.261Z,21.24
2023-04-25T15:18:33.042Z,20.86
2023-04-25T15:20:59.749Z,20.95
2023-04-25T15:23:27.838Z,20.46
2023-04-25T15:25:55.947Z,20.33
2023-04-25T15:28:23.101Z,20.22
2023-04-25T15:30:49.979Z,19.59
2023-04-25T15:33:16.984Z,19.48
2023-04-25T15:35:44.082Z,19.69
2023-04-25T15:38:11.748Z,19.44
2023-04-25T15:40:38.516Z,19.43
2023-04-25T15:43:05.287Z,19.38
2023-04-25T15:45:33.138Z,19.26
2023-04-25T15:47:59.951Z,19.19
2023-04-25T15:50:27.057Z,19.12
2023-04-25T15:52:54.884Z,19.04
2023-04-25T15:55:22.045Z,19.38
2023-04-25T15:57:49.641Z,19.23
2023-04-25T16:00:17.902Z,19.25
2023-04-25T16:02:45.926Z,19.15
2023-04-25T16:05:14.748Z,19.44
2023-04-25T16:07:43.693Z,19.74
2023-04-25T16:10:11.480Z,19.92
2023-04-25T16:12:39.685Z,19.44
2023-04-25T16:15:06.879Z,19.52
2023-04-25T16:17:33.910Z,19.67
2023-04-25T16:20:04.514Z,19.79
2023-04-25T16:22:31.936Z,19.92
2023-04-25T16:24:58.649Z,20.11
2023-04-25T16:27:25.795Z,20.29
2023-04-25T16:29:52.527Z,20.30
2023-04-25T16:32:19.515Z,20.33
2023-04-25T16:34:46.285Z,20.67
2023-04-25T16:37:13.072Z,20.79
2023-04-25T16:39:39.823Z,21.01
2023-04-25T16:42:06.957Z,21.15
2023-04-25T16:44:33.781Z,21.48
2023-04-25T16:47:00.666Z,21.40
2023-04-25T16:49:27.525Z,21.57
2023-04-25T16:51:54.260Z,21.98
2023-04-25T16:54:21.411Z,22.08
2023-04-25T16:56:48.163Z,22.48
2023-04-25T16:59:14.919Z,22.75
2023-04-25T17:01:41.638Z,23.38
2023-04-25T17:04:08.445Z,23.79
2023-04-25T17:06:35.410Z,24.07
2023-04-25T17:09:02.166Z,24.49
2023-04-25T17:11:28.914Z,24.91
2023-04-25T17:13:55.718Z,25.16
2023-04-25T17:16:23.402Z,25.37
2023-04-25T17:18:53.354Z,25.70
2023-04-25T17:21:20.426Z,25.82
2023-04-25T17:23:47.319Z,26.15
2023-04-25T17:26:14.922Z,26.34
2023-04-25T17:28:42.337Z,26.64
2023-04-25T17:31:09.858Z,26.72
2023-04-25T17:33:36.868Z,26.91
2023-04-25T17:36:04.142Z,27.01
2023-04-25T17:38:31.748Z,27.40
2023-04-25T17:40:58.871Z,27.41
2023-04-25T17:43:26.760Z,27.72
2023-04-25T17:45:54.073Z,27.81
2023-04-25T17:48:22.966Z,27.96
2023-04-25T17:50:49.794Z,28.12
2023-04-25T17:53:16.616Z,28.28
2023-04-25T17:55:43.885Z,28.29
2023-04-25T17:58:11.509Z,28.35
2023-04-25T18:00:39.412Z,28.56
2023-04-25T18:03:07.705Z,28.70
2023-04-25T18:05:34.774Z,28.86
2023-04-25T18:08:01.575Z,28.89
2023-04-25T18:10:28.459Z,29.10
2023-04-25T18:12:55.348Z,29.15
2023-04-25T18:15:22.903Z,29.17
2023-04-25T18:17:49.767Z,29.22
2023-04-25T18:20:17.107Z,29.31
2023-04-25T18:22:44.938Z,29.37
2023-04-25T18:25:11.983Z,29.48
2023-04-25T18:27:39.038Z,29.45
2023-04-25T18:30:07.552Z,29.62
2023-04-25T18:32:34.488Z,29.73
2023-04-25T18:35:01.620Z,29.86
2023-04-25T18:37:28.614Z,30.04
2023-04-25T18:39:55.509Z,30.11
2023-04-25T18:42:22.734Z,30.30
2023-04-25T18:44:49.762Z,30.45
2023-04-25T18:47:16.918Z,30.48
2023-04-25T18:49:44.070Z,30.50
2023-04-25T18:52:12.731Z,30.71
2023-04-25T18:54:39.657Z,30.81
2023-04-25T18:57:06.484Z,30.91
2023-04-25T18:59:33.732Z,31.13
2023-04-25T19:02:02.094Z,31.22
2023-04-25T19:04:29.319Z,31.40
2023-04-25T19:06:56.422Z,31.54
2023-04-25T19:09:23.381Z,31.78
2023-04-25T19:11:50.099Z,31.82
2023-04-25T19:14:16.848Z,32.24
2023-04-25T19:16:43.652Z,32.32
2023-04-25T19:19:10.963Z,32.52
2023-04-25T19:21:38.018Z,32.62
2023-04-25T19:24:05.505Z,32.81
2023-04-25T19:26:32.392Z,33.07
2023-04-25T19:29:10.092Z,33.30
2023-04-25T19:33:27.460Z,34.35
2023-04-25T19:35:54.327Z,33.82
2023-04-25T19:38:21.420Z,33.85
2023-04-25T19:40:49.102Z,34.06
2023-04-25T19:43:15.830Z,34.06
2023-04-25T19:45:42.535Z,34.22
2023-04-25T19:48:10.423Z,34.16
2023-04-25T19:50:37.271Z,34.31
2023-04-25T19:53:04.460Z,34.38
2023-04-25T19:55:31.198Z,34.55
2023-04-25T19:57:58.008Z,34.53
2023-04-25T20:00:24.750Z,34.78
2023-04-25T20:02:51.484Z,34.92
2023-04-25T20:05:18.775Z,35.09
2023-04-25T20:07:45.492Z,35.25
2023-04-25T20:10:16.606Z,35.42
2023-04-25T20:12:44.312Z,35.76
2023-04-25T20:15:11.864Z,35.95
2023-04-25T20:17:40.302Z,36.25
2023-04-25T20:20:08.526Z,36.54
2023-04-25T20:22:36.283Z,36.72
2023-04-25T20:25:07.114Z,36.91
2023-04-25T20:27:33.836Z,36.95
2023-04-25T20:30:04.923Z,37.29
2023-04-25T20:32:34.885Z,37.50
2023-04-25T20:35:05.908Z,37.95
2023-04-25T20:37:33.314Z,38.14
2023-04-25T20:40:00.684Z,38.43
2023-04-25T20:42:27.529Z,38.62
2023-04-25T20:44:54.742Z,39.02
2023-04-25T20:47:22.558Z,39.17
2023-04-25T20:49:50.074Z,39.61
2023-04-25T20:52:17.442Z,40.08
2023-04-25T20:54:45.246Z,40.14
2023-04-25T20:57:12.398Z,40.49
2023-04-25T20:59:39.135Z,40.80
2023-04-25T21:02:05.908Z,41.13
2023-04-25T21:04:32.683Z,41.22
2023-04-25T21:07:00.942Z,41.48
2023-04-25T21:09:27.775Z,41.76
2023-04-25T21:11:54.619Z,41.98
2023-04-25T21:14:23.002Z,42.25
2023-04-25T21:16:49.756Z,42.65
2023-04-25T21:19:16.771Z,42.75
2023-04-25T21:21:44.539Z,42.74
2023-04-25T21:24:13.013Z,43.04
2023-04-25T21:26:39.814Z,43.12
2023-04-25T21:29:06.539Z,43.14
2023-04-25T21:31:33.356Z,43.40
2023-04-25T21:34:00.851Z,43.65
2023-04-25T21:36:27.968Z,43.81
2023-04-25T21:38:55.007Z,44.06
2023-04-25T21:41:22.589Z,44.31
2023-04-25T21:43:49.327Z,44.69
2023-04-25T21:46:23.376Z,44.93
2023-04-25T21:48:51.634Z,45.24
2023-04-25T21:51:18.732Z,45.23
2023-04-25T21:53:45.521Z,45.63
2023-04-25T21:56:12.828Z,45.83
2023-04-25T21:58:39.648Z,46.14
2023-04-25T22:01:06.514Z,46.23
2023-04-25T22:03:33.664Z,46.47
2023-04-25T22:06:01.303Z,46.70
2023-04-25T22:08:28.161Z,46.81
2023-04-25T22:10:57.872Z,46.90
2023-04-25T22:13:24.784Z,47.02
2023-04-25T22:15:52.769Z,47.21
2023-04-25T22:18:19.897Z,47.36
2023-04-25T22:20:46.741Z,47.52
2023-04-25T22:23:14.312Z,47.70
2023-04-25T22:25:42.173Z,47.77
2023-04-25T22:28:08.941Z,48.09
2023-04-25T22:30:35.641Z,48.13
2023-04-25T22:33:02.361Z,48.18
2023-04-25T22:35:29.178Z,48.45
2023-04-25T22:37:55.864Z,48.57
2023-04-25T22:40:22.688Z,48.75
2023-04-25T22:42:49.565Z,48.80
2023-04-25T22:45:17.301Z,49.03
2023-04-25T22:47:44.283Z,49.14
2023-04-25T22:50:16.832Z,49.29
2023-04-25T22:52:44.003Z,49.54
2023-04-25T22:55:12.553Z,49.54
2023-04-25T22:57:39.660Z,49.61
2023-04-25T23:00:27.724Z,49.78
2023-04-25T23:02:54.912Z,49.84
2023-04-25T23:05:24.514Z,49.59
2023-04-25T23:07:51.216Z,49.63
2023-04-25T23:10:19.392Z,49.96
2023-04-25T23:12:46.164Z,50.09
2023-04-25T23:15:13.724Z,50.24
2023-04-25T23:17:40.854Z,50.43
2023-04-25T23:20:10.772Z,50.62
2023-04-25T23:22:38.240Z,50.68
2023-04-25T23:25:05.897Z,50.92
2023-04-25T23:27:33.054Z,50.80
2023-04-25T23:29:59.723Z,50.61
2023-04-25T23:32:26.893Z,50.71
2023-04-25T23:34:53.666Z,50.93
2023-04-25T23:37:20.449Z,51.05
2023-04-25T23:39:49.393Z,51.16
2023-04-25T23:42:17.196Z,51.33
2023-04-25T23:44:43.999Z,51.52
2023-04-25T23:47:13.103Z,51.70
2023-04-25T23:49:40.981Z,51.41
2023-04-25T23:52:07.926Z,51.25
2023-04-25T23:54:34.744Z,51.61
2023-04-25T23:57:04.435Z,51.90
2023-04-25T23:59:31.652Z,51.84
